createdAt,value
2019-04-21T00:02:26.494Z,8.00
2019-04-21T00:05:06.234Z,7.03
2019-04-21T00:07:45.376Z,7.77
2019-04-21T00:10:18.706Z,7.27
2019-04-21T00:12:54.775Z,7.63
2019-04-21T00:15:16.714Z,7.63
2019-04-21T00:17:45.635Z,6.83
2019-04-21T00:20:23.794Z,7.30
2019-04-21T00:23:05.914Z,10.10
2019-04-21T00:25:34.919Z,11.30
2019-04-21T00:28:16.782Z,8.00
2019-04-21T00:30:50.922Z,7.10
2019-04-21T00:33:12.292Z,7.40
2019-04-21T00:35:45.077Z,7.60
2019-04-21T00:38:32.662Z,7.93
2019-04-21T00:41:08.917Z,10.03
2019-04-21T00:43:32.894Z,9.20
2019-04-21T00:46:00.961Z,6.77
2019-04-21T00:48:49.767Z,9.93
2019-04-21T00:54:07.078Z,8.90
2019-04-21T00:56:34.376Z,8.40
2019-04-21T00:59:06.880Z,8.37
2019-04-21T01:01:37.932Z,9.13
2019-04-21T01:04:09.673Z,7.80
2019-04-21T01:06:47.935Z,9.50
2019-04-21T01:09:13.825Z,7.83
2019-04-21T01:11:49.217Z,8.13
2019-04-21T01:14:35.836Z,8.77
2019-04-21T01:17:00.701Z,7.87
2019-04-21T01:19:25.136Z,9.70
2019-04-21T01:21:44.418Z,7.57
2019-04-21T01:24:21.652Z,9.70
2019-04-21T01:27:02.030Z,9.27
2019-04-21T01:29:45.849Z,8.10
2019-04-21T01:32:24.186Z,8.37
2019-04-21T01:34:51.372Z,8.70
2019-04-21T01:37:21.045Z,8.00
2019-04-21T01:40:02.051Z,8.13
2019-04-21T01:42:31.492Z,8.40
2019-04-21T01:45:05.464Z,8.73
2019-04-21T01:47:36.201Z,10.20
2019-04-21T01:50:02.869Z,8.63
2019-04-21T01:52:50.301Z,8.53
2019-04-21T01:55:30.630Z,10.43
2019-04-21T01:58:11.383Z,7.90
2019-04-21T02:01:00.117Z,9.47
2019-04-21T02:08:41.558Z,11.23
2019-04-21T02:11:17.278Z,11.90
2019-04-21T02:13:59.177Z,10.33
2019-04-21T02:16:23.845Z,14.00
2019-04-21T02:18:54.514Z,11.97
2019-04-21T02:21:37.040Z,11.47
2019-04-21T02:24:15.266Z,12.00
2019-04-21T02:26:41.215Z,12.87
2019-04-21T02:29:17.112Z,13.03
2019-04-21T02:32:07.904Z,12.30
2019-04-21T02:34:32.302Z,11.60
2019-04-21T02:37:23.975Z,12.97
2019-04-21T02:39:43.624Z,16.10
2019-04-21T02:42:09.679Z,17.57
2019-04-21T02:45:03.898Z,19.87
2019-04-21T02:47:29.079Z,18.50
2019-04-21T02:49:59.634Z,17.57
2019-04-21T02:55:04.070Z,18.33
2019-04-21T02:57:41.279Z,18.73
2019-04-21T03:00:13.674Z,18.87
2019-04-21T03:05:51.163Z,15.97
2019-04-21T03:08:25.331Z,17.43
2019-04-21T03:11:01.084Z,18.60
2019-04-21T03:16:11.798Z,14.53
2019-04-21T03:18:40.098Z,14.17
2019-04-21T03:21:16.538Z,16.20
2019-04-21T03:23:52.286Z,17.77
2019-04-21T03:31:50.953Z,16.57
2019-04-21T03:36:52.823Z,13.57
2019-04-21T03:39:21.663Z,15.00
2019-04-21T03:41:50.582Z,15.03
2019-04-21T03:46:47.392Z,14.30
2019-04-21T03:51:59.361Z,15.43
2019-04-21T03:54:25.212Z,14.13
2019-04-21T03:57:10.562Z,14.90
2019-04-21T03:59:31.668Z,17.03
2019-04-21T04:02:14.770Z,18.10
2019-04-21T04:05:08.955Z,12.77
2019-04-21T04:07:59.434Z,14.67
2019-04-21T04:10:52.033Z,16.27
2019-04-21T04:13:05.450Z,14.87
2019-04-21T04:15:49.093Z,17.77
2019-04-21T04:18:17.610Z,12.50
2019-04-21T04:20:43.786Z,16.77
2019-04-21T04:23:20.259Z,16.40
2019-04-21T04:25:49.745Z,18.10
2019-04-21T04:28:49.750Z,15.80
2019-04-21T04:31:08.215Z,14.73
2019-04-21T04:36:39.969Z,13.40
2019-04-21T04:38:50.149Z,12.83
2019-04-21T04:41:25.081Z,13.70
2019-04-21T04:44:17.718Z,12.73
2019-04-21T04:46:34.779Z,12.33
2019-04-21T04:49:34.360Z,13.13
2019-04-21T04:54:17.119Z,16.07
2019-04-21T04:56:47.702Z,13.00
2019-04-21T05:04:30.637Z,12.63
2019-04-21T05:06:56.633Z,12.33
2019-04-21T05:09:31.970Z,16.70
2019-04-21T05:12:19.078Z,12.97
2019-04-21T05:14:41.037Z,14.00
2019-04-21T05:17:15.716Z,12.97
2019-04-21T05:19:57.399Z,13.40
2019-04-21T05:22:22.157Z,12.60
2019-04-21T05:24:44.110Z,12.47
2019-04-21T05:27:42.922Z,13.00
2019-04-21T05:30:59.246Z,14.47
2019-04-21T05:33:38.497Z,13.50
2019-04-21T05:36:20.945Z,13.73
2019-04-21T05:39:26.225Z,15.57
2019-04-21T05:41:50.857Z,11.70
2019-04-21T05:44:41.339Z,12.23
2019-04-21T05:47:20.739Z,12.67
2019-04-21T05:50:04.579Z,12.77
2019-04-21T05:52:44.665Z,12.60
2019-04-21T05:58:02.550Z,12.83
2019-04-21T06:01:03.513Z,12.90
2019-04-21T06:03:19.741Z,13.57
2019-04-21T06:06:00.548Z,12.23
2019-04-21T06:08:26.632Z,12.27
2019-04-21T06:11:13.240Z,13.07
2019-04-21T06:13:35.106Z,12.87
2019-04-21T06:16:23.227Z,11.23
2019-04-21T06:21:11.284Z,13.53
2019-04-21T06:23:47.789Z,12.60
2019-04-21T06:28:53.025Z,11.97
2019-04-21T06:31:42.170Z,12.30
2019-04-21T06:34:03.739Z,13.07
2019-04-21T06:37:07.906Z,13.17
2019-04-21T06:39:48.363Z,13.97
2019-04-21T06:42:09.788Z,14.77
2019-04-21T06:44:54.212Z,14.83
2019-04-21T06:47:26.566Z,15.23
2019-04-21T06:49:50.558Z,14.63
2019-04-21T06:55:02.611Z,13.83
2019-04-21T06:57:34.834Z,14.00
2019-04-21T07:00:06.500Z,13.07
2019-04-21T07:02:51.888Z,15.33
2019-04-21T07:05:20.300Z,14.70
2019-04-21T07:07:54.706Z,14.23
2019-04-21T07:12:51.097Z,17.40
2019-04-21T07:15:30.780Z,17.03
2019-04-21T07:18:08.352Z,17.15
2019-04-21T07:20:37.990Z,21.03
2019-04-21T07:23:20.511Z,19.43
2019-04-21T07:25:45.896Z,16.10
2019-04-21T07:28:19.280Z,18.40
2019-04-21T07:30:59.405Z,16.13
2019-04-21T07:33:49.085Z,14.70
2019-04-21T07:36:03.765Z,18.33
2019-04-21T07:38:33.174Z,18.40
2019-04-21T07:41:02.128Z,20.03
2019-04-21T07:43:38.030Z,17.20
2019-04-21T07:46:10.165Z,16.83
2019-04-21T07:48:54.190Z,16.87
2019-04-21T07:51:56.827Z,17.03
2019-04-21T07:54:36.036Z,15.67
2019-04-21T07:56:55.080Z,16.27
2019-04-21T07:59:52.526Z,15.50
2019-04-21T08:02:10.233Z,15.97
2019-04-21T08:04:55.999Z,17.30
2019-04-21T08:07:26.634Z,14.63
2019-04-21T08:09:46.701Z,11.80
2019-04-21T08:12:16.239Z,11.10
2019-04-21T08:15:00.148Z,6.97
2019-04-21T08:17:30.296Z,6.17
2019-04-21T08:19:58.964Z,6.27
2019-04-21T08:22:41.242Z,6.53
2019-04-21T08:25:09.000Z,6.30
2019-04-21T08:27:51.263Z,6.47
2019-04-21T08:30:22.655Z,6.50
2019-04-21T08:33:02.418Z,5.67
2019-04-21T08:38:02.069Z,4.17
2019-04-21T08:40:51.068Z,5.80
2019-04-21T08:43:08.874Z,5.97
2019-04-21T08:45:46.777Z,4.67
2019-04-21T08:48:17.034Z,5.20
2019-04-21T08:51:00.154Z,5.77
2019-04-21T08:53:24.730Z,4.50
2019-04-21T08:59:11.983Z,5.40
2019-04-21T09:01:48.889Z,5.63
2019-04-21T09:04:24.524Z,7.57
2019-04-21T09:09:28.876Z,6.07
2019-04-21T09:12:04.655Z,5.50
2019-04-21T09:14:39.538Z,4.03
2019-04-21T09:17:06.484Z,4.40
2019-04-21T09:19:53.408Z,3.50
2019-04-21T09:22:20.314Z,4.40
2019-04-21T09:24:53.590Z,4.20
2019-04-21T09:27:21.766Z,3.80
2019-04-21T09:29:47.908Z,3.50
2019-04-21T09:32:19.662Z,3.90
2019-04-21T09:34:47.456Z,3.80
2019-04-21T09:37:33.636Z,4.60
2019-04-21T09:39:57.359Z,3.93
2019-04-21T09:42:36.065Z,4.13
2019-04-21T09:45:06.171Z,4.10
2019-04-21T09:47:48.059Z,4.50
2019-04-21T09:50:13.421Z,3.77
2019-04-21T09:52:53.038Z,5.17
2019-04-21T09:55:24.609Z,5.07
2019-04-21T09:58:02.434Z,5.00
2019-04-21T10:00:36.341Z,4.47
2019-04-21T10:03:08.404Z,4.30
2019-04-21T10:05:36.110Z,4.20
2019-04-21T10:08:08.207Z,5.33
2019-04-21T10:10:40.540Z,3.73
2019-04-21T10:13:13.119Z,4.40
2019-04-21T10:15:48.425Z,4.90
2019-04-21T10:18:21.710Z,4.83
2019-04-21T10:20:54.749Z,5.60
2019-04-21T10:23:27.478Z,5.13
2019-04-21T10:26:00.583Z,5.73
2019-04-21T10:28:33.324Z,5.87
2019-04-21T10:31:06.881Z,5.37
2019-04-21T10:33:39.849Z,4.83
2019-04-21T10:36:13.115Z,4.57
2019-04-21T10:38:50.349Z,4.87
2019-04-21T10:41:19.276Z,3.73
2019-04-21T10:43:53.371Z,4.33
2019-04-21T10:46:24.984Z,4.57
2019-04-21T10:48:56.895Z,4.10
2019-04-21T10:51:28.869Z,5.17
2019-04-21T10:54:01.972Z,4.00
2019-04-21T10:56:38.805Z,5.50
2019-04-21T10:59:08.023Z,4.17
2019-04-21T11:01:41.065Z,3.87
2019-04-21T11:04:24.876Z,4.30
2019-04-21T11:06:50.809Z,5.07
2019-04-21T11:09:24.042Z,3.63
2019-04-21T11:11:57.847Z,3.70
2019-04-21T11:14:29.468Z,3.17
2019-04-21T11:17:03.941Z,3.87
2019-04-21T11:19:36.816Z,3.37
2019-04-21T11:22:08.532Z,3.40
2019-04-21T11:24:40.864Z,3.20
2019-04-21T11:27:12.806Z,2.93
2019-04-21T11:29:44.481Z,2.30
2019-04-21T11:32:16.979Z,2.50
2019-04-21T11:34:49.334Z,2.40
2019-04-21T11:37:24.155Z,2.40
2019-04-21T11:40:03.522Z,3.10
2019-04-21T11:42:33.559Z,2.70
2019-04-21T11:45:06.381Z,3.20
2019-04-21T11:47:46.452Z,2.80
2019-04-21T11:50:19.049Z,2.80
2019-04-21T11:52:50.649Z,3.67
2019-04-21T11:55:32.512Z,5.43
2019-04-21T11:57:58.241Z,2.40
2019-04-21T12:00:31.629Z,2.20
2019-04-21T12:03:03.779Z,2.70
2019-04-21T12:05:35.678Z,2.30
2019-04-21T12:08:17.594Z,2.53
2019-04-21T12:10:41.835Z,2.70
2019-04-21T12:13:14.116Z,2.57
2019-04-21T12:15:47.033Z,3.07
2019-04-21T12:18:19.812Z,5.30
2019-04-21T12:20:51.916Z,2.20
2019-04-21T12:23:24.671Z,2.42
2019-04-21T12:25:57.039Z,3.92
2019-04-21T12:28:30.240Z,2.55
2019-04-21T12:31:03.357Z,2.60
2019-04-21T12:33:56.165Z,4.70
2019-04-21T12:36:27.829Z,2.33
2019-04-21T12:39:01.779Z,2.00
2019-04-21T12:41:34.673Z,3.08
2019-04-21T12:44:06.780Z,2.45
2019-04-21T12:46:40.198Z,2.60
2019-04-21T12:49:13.498Z,3.15
2019-04-21T12:51:46.129Z,2.15
2019-04-21T12:54:17.772Z,2.45
2019-04-21T12:56:49.593Z,2.40
2019-04-21T12:59:21.327Z,3.55
2019-04-21T13:01:53.226Z,5.07
2019-04-21T13:04:26.023Z,3.33
2019-04-21T13:06:59.382Z,4.50
2019-04-21T13:09:32.460Z,2.70
2019-04-21T13:12:04.973Z,2.60
2019-04-21T13:14:37.804Z,2.60
2019-04-21T13:17:09.934Z,2.45
2019-04-21T13:19:41.607Z,2.45
2019-04-21T13:22:14.164Z,2.60
2019-04-21T13:24:45.888Z,3.25
2019-04-21T13:27:17.749Z,2.15
2019-04-21T13:29:50.403Z,2.30
2019-04-21T13:32:22.496Z,2.83
2019-04-21T13:34:54.989Z,2.45
2019-04-21T13:37:27.765Z,2.30
2019-04-21T13:40:34.536Z,2.80
2019-04-21T13:42:55.084Z,2.47
2019-04-21T13:45:25.965Z,2.77
2019-04-21T13:48:00.888Z,4.50
2019-04-21T13:50:35.141Z,4.53
2019-04-21T13:53:08.911Z,3.47
2019-04-21T13:55:40.889Z,2.55
2019-04-21T13:58:14.563Z,2.80
2019-04-21T14:00:47.952Z,3.45
2019-04-21T14:03:21.768Z,3.08
2019-04-21T14:05:54.150Z,2.35
2019-04-21T14:08:27.344Z,2.45
2019-04-21T14:10:59.778Z,2.20
2019-04-21T14:13:32.276Z,2.30
2019-04-21T14:16:06.265Z,2.08
2019-04-21T14:18:38.553Z,2.65
2019-04-21T14:21:11.362Z,3.75
2019-04-21T14:23:46.045Z,2.15
2019-04-21T14:26:18.220Z,2.10
2019-04-21T14:28:51.249Z,1.95
2019-04-21T14:31:24.159Z,2.53
2019-04-21T14:33:56.333Z,3.33
2019-04-21T14:36:28.901Z,1.87
2019-04-21T14:39:00.894Z,1.90
2019-04-21T14:41:36.022Z,2.00
2019-04-21T14:44:11.010Z,2.10
2019-04-21T14:47:05.035Z,1.80
2019-04-21T14:50:05.112Z,2.70
2019-04-21T14:52:39.178Z,2.20
2019-04-21T14:55:20.811Z,2.40
2019-04-21T14:57:52.675Z,2.20
2019-04-21T15:00:27.202Z,1.90
2019-04-21T15:02:59.073Z,2.17
2019-04-21T15:05:31.333Z,2.87
2019-04-21T15:08:03.429Z,2.55
2019-04-21T15:10:35.257Z,2.72
2019-04-21T15:13:07.711Z,3.22
2019-04-21T15:15:39.493Z,2.43
2019-04-21T15:18:12.565Z,2.60
2019-04-21T15:20:47.264Z,2.20
2019-04-21T15:23:17.997Z,2.72
2019-04-21T15:25:50.422Z,2.60
2019-04-21T15:28:22.438Z,2.27
2019-04-21T15:30:54.490Z,2.40
2019-04-21T15:33:26.585Z,3.60
2019-04-21T15:35:58.283Z,2.10
2019-04-21T15:38:30.101Z,2.07
2019-04-21T15:41:06.416Z,2.40
2019-04-21T15:43:36.324Z,2.70
2019-04-21T15:46:08.832Z,2.47
2019-04-21T15:48:41.194Z,2.20
2019-04-21T15:51:13.670Z,2.27
2019-04-21T15:53:45.905Z,2.67
2019-04-21T15:56:22.747Z,2.07
2019-04-21T15:59:02.331Z,2.00
2019-04-21T16:01:50.690Z,2.20
2019-04-21T16:04:24.872Z,1.90
2019-04-21T16:06:57.467Z,2.83
2019-04-21T16:09:30.757Z,2.40
2019-04-21T16:12:02.318Z,2.33
2019-04-21T16:14:34.722Z,2.23
2019-04-21T16:17:07.531Z,2.27
2019-04-21T16:19:41.670Z,2.13
2019-04-21T16:22:14.788Z,2.53
2019-04-21T16:24:47.770Z,2.50
2019-04-21T16:27:21.385Z,2.60
2019-04-21T16:29:54.029Z,2.13
2019-04-21T16:32:26.131Z,2.37
2019-04-21T16:35:03.025Z,2.20
2019-04-21T16:37:31.871Z,2.23
2019-04-21T16:40:03.787Z,2.03
2019-04-21T16:42:36.274Z,2.63
2019-04-21T16:45:10.808Z,2.70
2019-04-21T16:47:42.535Z,3.20
2019-04-21T16:50:15.960Z,2.27
2019-04-21T16:52:54.461Z,2.47
2019-04-21T16:55:34.995Z,2.27
2019-04-21T16:58:28.909Z,3.53
2019-04-21T17:01:09.168Z,22.57
2019-04-21T17:03:38.390Z,3.40
2019-04-21T17:06:11.149Z,3.80
2019-04-21T17:08:44.926Z,3.73
2019-04-21T17:11:23.796Z,2.63
2019-04-21T17:13:51.979Z,2.70
2019-04-21T17:16:49.511Z,3.40
2019-04-21T17:19:09.582Z,3.53
2019-04-21T17:21:34.243Z,3.50
2019-04-21T17:24:06.575Z,2.87
2019-04-21T17:26:40.886Z,4.53
2019-04-21T17:29:12.402Z,3.27
2019-04-21T17:31:43.928Z,3.20
2019-04-21T17:34:20.114Z,3.33
2019-04-21T17:36:49.141Z,2.80
2019-04-21T17:39:23.103Z,3.37
2019-04-21T17:42:05.234Z,3.57
2019-04-21T17:44:29.684Z,3.30
2019-04-21T17:47:05.669Z,2.97
2019-04-21T17:49:35.026Z,3.40
2019-04-21T17:52:36.608Z,3.83
2019-04-21T17:55:21.437Z,5.30
2019-04-21T17:58:05.172Z,3.60
2019-04-21T18:01:05.523Z,3.77
2019-04-21T18:03:28.108Z,4.03
2019-04-21T18:05:50.266Z,6.10
2019-04-21T18:08:23.214Z,4.03
2019-04-21T18:10:50.677Z,3.83
2019-04-21T18:13:18.195Z,3.57
2019-04-21T18:16:02.903Z,3.57
2019-04-21T18:18:23.130Z,3.37
2019-04-21T18:21:00.815Z,3.80
2019-04-21T18:23:54.804Z,3.50
2019-04-21T18:26:30.583Z,4.07
2019-04-21T18:28:55.730Z,3.77
2019-04-21T18:31:32.418Z,3.40
2019-04-21T18:34:12.751Z,3.40
2019-04-21T18:36:50.294Z,3.23
2019-04-21T18:39:49.775Z,3.63
2019-04-21T18:42:36.302Z,3.43
2019-04-21T18:48:16.477Z,5.43
2019-04-21T18:51:02.671Z,3.40
2019-04-21T18:53:47.774Z,2.80
2019-04-21T18:56:11.220Z,3.70
2019-04-21T18:58:42.575Z,3.30
2019-04-21T19:01:22.470Z,3.47
2019-04-21T19:03:51.151Z,3.57
2019-04-21T19:06:40.506Z,4.00
2019-04-21T19:09:14.383Z,4.90
2019-04-21T19:11:48.136Z,3.90
2019-04-21T19:17:39.571Z,6.07
2019-04-21T19:19:49.045Z,4.87
2019-04-21T19:22:11.910Z,4.60
2019-04-21T19:24:45.683Z,4.83
2019-04-21T19:27:19.150Z,3.80
2019-04-21T19:30:01.604Z,3.77
2019-04-21T19:32:37.468Z,3.80
2019-04-21T19:34:40.683Z,4.40
2019-04-21T19:37:16.420Z,4.07
2019-04-21T19:40:00.548Z,4.50
2019-04-21T19:42:29.133Z,4.73
2019-04-21T19:45:06.203Z,5.03
2019-04-21T19:47:44.954Z,4.47
2019-04-21T19:50:18.115Z,3.97
2019-04-21T19:52:43.994Z,8.33
2019-04-21T19:55:06.633Z,6.07
2019-04-21T19:57:38.916Z,6.57
2019-04-21T20:00:12.077Z,9.23
2019-04-21T20:02:44.837Z,7.23
2019-04-21T20:05:24.152Z,7.13
2019-04-21T20:08:06.655Z,6.63
2019-04-21T20:10:44.334Z,7.20
2019-04-21T20:13:26.247Z,9.83
2019-04-21T20:15:50.973Z,8.23
2019-04-21T20:18:17.581Z,8.77
2019-04-21T20:20:39.653Z,7.47
2019-04-21T20:23:18.026Z,6.90
2019-04-21T20:25:52.251Z,7.93
2019-04-21T20:28:33.229Z,8.10
2019-04-21T20:31:14.700Z,7.90
2019-04-21T20:33:52.672Z,7.90
2019-04-21T20:36:25.208Z,8.40
2019-04-21T20:38:42.118Z,8.90
2019-04-21T20:41:22.359Z,9.87
2019-04-21T20:44:04.197Z,10.07
2019-04-21T20:46:36.819Z,10.57
2019-04-21T20:49:05.269Z,9.97
2019-04-21T20:51:37.889Z,10.77
2019-04-21T20:54:16.045Z,10.50
2019-04-21T20:56:51.202Z,10.10
2019-04-21T20:59:19.531Z,12.30
2019-04-21T21:02:00.600Z,10.53
2019-04-21T21:04:22.982Z,10.40
2019-04-21T21:07:06.772Z,10.63
2019-04-21T21:09:33.926Z,10.17
2019-04-21T21:12:22.363Z,10.00
2019-04-21T21:14:36.451Z,11.27
2019-04-21T21:17:30.350Z,10.60
2019-04-21T21:19:55.124Z,8.70
2019-04-21T21:22:14.708Z,8.50
2019-04-21T21:24:56.775Z,11.10
2019-04-21T21:27:26.745Z,11.67
2019-04-21T21:30:00.690Z,11.30
2019-04-21T21:32:37.476Z,14.17
2019-04-21T21:35:12.046Z,13.20
2019-04-21T21:37:49.223Z,13.10
2019-04-21T21:40:21.868Z,13.83
2019-04-21T21:42:40.148Z,14.37
2019-04-21T21:45:15.606Z,13.07
2019-04-21T21:48:00.969Z,11.77
2019-04-21T21:50:24.161Z,10.60
2019-04-21T21:52:59.883Z,13.03
2019-04-21T21:55:23.743Z,11.70
2019-04-21T21:58:01.177Z,11.13
2019-04-21T22:00:30.268Z,10.90
2019-04-21T22:03:16.301Z,13.57
2019-04-21T22:05:46.592Z,12.07
2019-04-21T22:08:12.332Z,13.70
2019-04-21T22:10:45.322Z,14.67
2019-04-21T22:13:21.924Z,15.60
2019-04-21T22:15:56.507Z,14.80
2019-04-21T22:18:39.245Z,14.50
2019-04-21T22:21:13.849Z,14.13
2019-04-21T22:23:43.869Z,13.90
2019-04-21T22:26:07.319Z,13.53
2019-04-21T22:28:40.048Z,13.57
2019-04-21T22:31:18.204Z,13.20
2019-04-21T22:33:49.728Z,12.63
2019-04-21T22:36:34.278Z,13.20
2019-04-21T22:39:11.959Z,13.50
2019-04-21T22:41:33.794Z,11.70
2019-04-21T22:43:59.328Z,11.73
2019-04-21T22:46:32.741Z,12.03
2019-04-21T22:49:10.362Z,12.60
2019-04-21T22:51:45.944Z,12.90
2019-04-21T22:54:19.324Z,15.93
2019-04-21T22:56:56.586Z,14.43
2019-04-21T22:59:22.224Z,14.20
2019-04-21T23:01:55.386Z,15.30
2019-04-21T23:04:36.432Z,14.90
2019-04-21T23:07:07.397Z,17.80
2019-04-21T23:09:34.997Z,18.17
2019-04-21T23:12:08.085Z,14.07
2019-04-21T23:14:47.563Z,15.17
2019-04-21T23:17:34.162Z,14.60
2019-04-21T23:20:10.246Z,11.80
2019-04-21T23:22:49.251Z,13.57
2019-04-21T23:25:16.710Z,12.17
2019-04-21T23:27:46.953Z,12.30
2019-04-21T23:30:26.203Z,13.07
2019-04-21T23:32:45.151Z,10.60
2019-04-21T23:35:18.355Z,11.17
2019-04-21T23:37:51.055Z,10.60
2019-04-21T23:40:19.864Z,11.90
2019-04-21T23:42:49.260Z,15.10
2019-04-21T23:45:25.142Z,11.20
2019-04-21T23:48:11.398Z,11.80
2019-04-21T23:50:38.906Z,14.23
2019-04-21T23:53:03.633Z,14.10
2019-04-21T23:55:35.307Z,13.10
2019-04-21T23:58:14.361Z,13.97
